Hauptseite
METAR-TAF:

METAR-TAF

Flughäfen :

Dschibuti, Dschibuti

Flughafen Dschibuti

Breite: 11-33N, Länge: 043-10E, Höhe: 49 m

Beobachtung

Neuester Wetterbericht von vor 33 Minuten, um 16:00 UTC
Wind 8 kt aus Ost/Südost
Temperatur 27°C
Luftfeuchtigkeit 66%
Luftdruck 1018 hPa
Sichtweite 10 km oder mehr
Leicht bewölkt in der Höhe von 2000 ft

METAR: HDAM 181600Z 11008KT 9999 FEW020 27/20 Q1018

Zeit: 19:33 (16:33 UTC)

Prognose

Neuester Wetterbericht von vor 5 Stunden und 33 Minuten, um 11:00 UTC
Gültige Prognose vom 18 um 12 UTC bis 19 um 12 UTC
Wind 10 kt aus Ost
Leicht bewölkt in der Höhe von 2300 ft
Übergehend zu
vom 18 um 15 UTC bis 19 um 06 UTC
Wind 3 kt aus unterschiedlichen Richtungen
Aufgelockert bewölkt in der Höhe von 2000 ft

TAF: HDAM 181100Z 1812/1912 10010KT 9/9 FEW023 BECMG 1815/1906 VRB03KT SCT020

Wetterbeobachtungen und Prognosen von mehr als 4000 Flughäfen (METAR und TAF Bericht).

Die verfügbaren Stationen werden durch gelbe und rote Markierungen auf der Karte dargestellt.

Führen Sie die Maus auf sie, um den Namen der Station zu sehen.

Darauf klicken, um die Beobachtung von Wetterbeobachtungen und Prognosen zu sehen.

Um die Karte zu ändern : klicken Sie auf den grünen Tasten mit einem schwarzen Kreuz Zum Vergrößern, auf den grünen Button mit einem Gedankenstrich zu verkleinern, oder auf die grünen Pfeile für benachbarte Karten.


METAR-TAF: